Nenana Municipal Airport
PANN : now visible

Airfield :











YOU CAN JOIN US ON...

 
LOGIN :

Register | Disclaimer

   EN    FR    IT 

 









Legend :    VFR   Marginal VFR   IFR   Intensive IFR   Very Intensive IFR
Visi :
Ceiling :
>= 8 km
>= 3000ft
5 to 8 km
1000 to 3000 ft
1500m to 5 km
500 to 1000 ft
800 to 1500m
200 to 500 ft
< 800m
< 200 ft
Symbols :   Thunderstorms  Fog  Heavy snow  Heavy precipitations  Wind > 20 kt






- Airport Elevation : 362 ft
- IATA code : ENN


PANN - Nenana Municipal

CURRENT METAR :
  • 211053Z AUTO 08003KT 10SM SCT046 M26/M30 A2957 RMK AO2 SLP031 T12561300 TSNO

EXPIRED METARs :
  • 210953Z AUTO 00000KT 10SM CLR M26/M30 A2955 RMK AO2 SLP024 T12561300 TSNO
  • 210853Z AUTO 00000KT 10SM CLR M26/M30 A2953 RMK AO2 SLP019 T12561300 412221367 53015 TSNO

TAF N/A



MET'MAP, your aeronautical weather chart ! - Copyright ORBIFLY December 2007 - Disclaimer

ORBIFLY MET'MAP TEAM :

Programming & Development : Alexandra Zaïnal
Concept & original design : Baudouin d'Aumeries
Assistance for programming : Marc-Olivier Méhu
Technical & hardware support : Manuel Goepfert

Contact : metmap@orbifly.com




SOURCES & CREDITS :

   NOAA       Earth
Advisory